Time;durP1;ratioP1;P1;durP2;ratioP2;P2;SDS_P1;SDS_P2;PMS_P1;PMS_P2;Temp;Humidity;BMP_temperature;BMP_pressure;BME280_temperature;BME280_humidity;BME280_pressure;Samples;Min_cycle;Max_cycle;Signal;HPM_P1;HPM_P2
2023/04/08 00:02:02;;;;;;;13.30;10.52;;;;;;;1.47;100.00;95854.91;4926897;29;20107;-72
2023/04/08 00:04:27;;;;;;;10.10;8.85;;;;;;;1.44;100.00;95853.31;4926031;29;20024;-72
2023/04/08 00:06:53;;;;;;;11.98;9.82;;;;;;;1.42;100.00;95850.78;4935342;29;20028;-72
2023/04/08 00:09:18;;;;;;;11.20;8.82;;;;;;;1.34;100.00;95852.94;4936858;29;20027;-71
2023/04/08 00:11:43;;;;;;;10.40;9.27;;;;;;;1.29;100.00;95845.41;4936051;29;20023;-71
2023/04/08 00:14:09;;;;;;;10.52;9.13;;;;;;;1.28;100.00;95848.09;4930038;29;20032;-72
2023/04/08 00:16:34;;;;;;;12.43;9.38;;;;;;;1.26;100.00;95845.56;4914160;29;20031;-72
2023/04/08 00:19:00;;;;;;;10.05;8.57;;;;;;;1.20;100.00;95842.44;4934774;29;20129;-71
2023/04/08 00:21:26;;;;;;;10.30;8.18;;;;;;;1.17;100.00;95847.81;4910405;29;20127;-72
2023/04/08 00:23:51;;;;;;;8.13;7.30;;;;;;;1.12;100.00;95851.47;4936139;29;20024;-71
2023/04/08 00:26:16;;;;;;;9.02;8.15;;;;;;;1.17;100.00;95846.06;4929997;29;20480;-72
2023/04/08 00:28:42;;;;;;;10.55;8.35;;;;;;;1.17;100.00;95848.66;4927728;29;20032;-71
2023/04/08 00:31:08;;;;;;;9.70;8.15;;;;;;;1.14;100.00;95844.47;4931946;29;20032;-72
2023/04/08 00:33:34;;;;;;;9.52;7.00;;;;;;;1.18;100.00;95852.06;4934420;29;20087;-72
2023/04/08 00:35:59;;;;;;;8.15;7.22;;;;;;;1.15;100.00;95850.50;4931122;29;20039;-72
2023/04/08 00:38:25;;;;;;;8.73;7.82;;;;;;;1.14;100.00;95843.63;4940515;29;20039;-72
2023/04/08 00:40:50;;;;;;;10.68;8.05;;;;;;;1.14;100.00;95844.47;4935963;29;20024;-72
2023/04/08 00:43:19;;;;;;;8.95;8.07;;;;;;;1.12;100.00;95850.66;4932231;29;20020;-72
2023/04/08 00:45:45;;;;;;;8.35;7.50;;;;;;;1.06;100.00;95851.81;4937227;29;20019;-71
2023/04/08 00:48:10;;;;;;;7.80;7.00;;;;;;;1.06;100.00;95849.22;4938487;29;20362;-72
2023/04/08 00:50:35;;;;;;;11.40;7.40;;;;;;;1.00;100.00;95844.34;4930409;29;20030;-71
2023/04/08 00:53:01;;;;;;;6.63;5.95;;;;;;;0.97;100.00;95847.09;4934749;29;20035;-71
2023/04/08 00:55:26;;;;;;;7.57;6.57;;;;;;;0.95;100.00;95838.56;4914063;29;20130;-71
2023/04/08 00:57:52;;;;;;;5.80;5.13;;;;;;;0.96;100.00;95845.41;4923296;29;20059;-72
2023/04/08 01:00:18;;;;;;;5.75;5.25;;;;;;;0.97;100.00;95844.50;4929116;29;20023;-72
2023/04/08 01:03:22;;;;;;;6.25;5.40;;;;;;;0.99;100.00;95840.06;4932434;29;20015;-71
2023/04/08 01:06:08;;;;;;;5.35;4.93;;;;;;;0.95;100.00;95848.91;4924137;29;20042;-71
2023/04/08 01:08:37;;;;;;;5.30;4.80;;;;;;;0.90;100.00;95850.91;4923114;29;20047;-71
2023/04/08 01:11:04;;;;;;;4.60;4.22;;;;;;;0.86;100.00;95847.63;4939162;29;20031;-71
2023/04/08 01:13:35;;;;;;;5.18;4.60;;;;;;;0.83;100.00;95853.84;4920230;29;20074;-72
2023/04/08 01:16:01;;;;;;;5.60;5.15;;;;;;;0.80;100.00;95854.00;4939905;29;20581;-72
2023/04/08 01:18:29;;;;;;;5.40;4.38;;;;;;;0.77;100.00;95856.72;4939206;29;20406;-72
2023/04/08 01:20:56;;;;;;;4.97;4.53;;;;;;;0.74;100.00;95849.09;4930349;29;20030;-71
2023/04/08 01:23:43;;;;;;;4.60;4.20;;;;;;;0.73;100.00;95849.19;4933036;29;20031;-72
2023/04/08 01:26:12;;;;;;;5.57;3.70;;;;;;;0.65;100.00;95852.16;4924304;29;20099;-71
2023/04/08 01:28:39;;;;;;;3.17;3.05;;;;;;;0.66;100.00;95849.50;4945390;28;20502;-71
2023/04/08 01:31:06;;;;;;;3.33;3.13;;;;;;;0.63;100.00;95849.63;4938961;29;20040;-71
2023/04/08 01:33:33;;;;;;;3.15;2.90;;;;;;;0.63;100.00;95846.22;4937259;29;20062;-71
2023/04/08 01:35:59;;;;;;;3.30;3.10;;;;;;;0.62;100.00;95845.38;4928773;29;20685;-71
2023/04/08 01:38:26;;;;;;;3.75;3.45;;;;;;;0.57;100.00;95840.44;4939064;29;20510;-72
2023/04/08 01:40:53;;;;;;;3.22;2.95;;;;;;;0.55;100.00;95847.47;4932181;29;20058;-71
2023/04/08 01:43:19;;;;;;;3.30;3.10;;;;;;;0.52;100.00;95837.22;4914743;29;20065;-72
2023/04/08 01:45:47;;;;;;;3.08;2.88;;;;;;;0.52;100.00;95845.00;4930171;29;20480;-72
2023/04/08 01:48:14;;;;;;;3.58;3.28;;;;;;;0.49;100.00;95844.31;4938466;29;20106;-72
2023/04/08 01:50:43;;;;;;;3.08;2.92;;;;;;;0.47;100.00;95846.16;4924871;29;20070;-72
2023/04/08 01:53:10;;;;;;;2.70;2.50;;;;;;;0.43;100.00;95840.28;4937766;29;20030;-71
2023/04/08 01:55:39;;;;;;;4.32;3.33;;;;;;;0.38;100.00;95842.28;4938493;29;20043;-72
2023/04/08 01:58:07;;;;;;;3.20;3.00;;;;;;;0.37;100.00;95836.22;4920074;29;20139;-72
2023/04/08 02:00:34;;;;;;;2.75;2.55;;;;;;;0.39;100.00;95841.34;4932546;29;20083;-72
2023/04/08 02:03:01;;;;;;;4.95;2.80;;;;;;;0.38;100.00;95843.09;4923358;29;20079;-72
2023/04/08 02:05:27;;;;;;;2.83;2.63;;;;;;;0.37;100.00;95841.41;4927569;29;20038;-72
2023/04/08 02:07:52;;;;;;;3.00;2.85;;;;;;;0.39;100.00;95843.94;4932715;29;20016;-72
2023/04/08 02:10:17;;;;;;;3.38;3.08;;;;;;;0.38;100.00;95842.28;4933036;29;20031;-72
2023/04/08 02:12:44;;;;;;;3.20;3.00;;;;;;;0.34;100.00;95846.75;4924840;29;20021;-71
2023/04/08 02:15:12;;;;;;;3.25;2.97;;;;;;;0.35;100.00;95842.44;4924955;29;20031;-72
2023/04/08 02:17:49;;;;;;;3.13;2.92;;;;;;;0.34;100.00;95844.16;4926515;29;20052;-72
2023/04/08 02:20:22;;;;;;;3.55;3.15;;;;;;;0.25;100.00;95849.81;4938150;29;20103;-72
2023/04/08 02:22:57;;;;;;;3.20;3.00;;;;;;;0.26;100.00;95835.94;4937951;29;20035;-72
2023/04/08 02:25:25;;;;;;;2.80;2.60;;;;;;;0.24;100.00;95838.59;4921645;29;20151;-72
2023/04/08 02:27:51;;;;;;;5.15;3.15;;;;;;;0.22;100.00;95845.59;4936797;29;20058;-72
2023/04/08 02:30:18;;;;;;;2.92;2.78;;;;;;;0.19;100.00;95845.75;4938555;29;20518;-72
2023/04/08 02:32:46;;;;;;;3.22;2.92;;;;;;;0.16;100.00;95856.25;4938049;29;20031;-71
2023/04/08 02:35:13;;;;;;;2.85;2.75;;;;;;;0.14;100.00;95843.38;4940856;29;20055;-72
2023/04/08 02:37:38;;;;;;;3.45;2.97;;;;;;;0.13;100.00;95857.25;4937287;29;20472;-72
2023/04/08 02:40:20;;;;;;;2.78;2.60;;;;;;;0.14;100.00;95855.50;4926585;29;20102;-72
2023/04/08 02:42:46;;;;;;;3.63;3.33;;;;;;;0.12;100.00;95854.75;4930664;29;20400;-72
2023/04/08 02:45:11;;;;;;;3.33;3.10;;;;;;;0.09;100.00;95849.69;4921133;29;20028;-72
2023/04/08 02:47:36;;;;;;;3.20;2.97;;;;;;;0.07;100.00;95852.38;4935236;29;20874;-72
2023/04/08 02:50:02;;;;;;;3.20;3.00;;;;;;;0.06;100.00;95849.84;4928940;29;20056;-72
2023/04/08 02:52:27;;;;;;;3.08;2.88;;;;;;;0.04;100.00;95851.66;4926157;29;20042;-72
2023/04/08 02:54:53;;;;;;;4.30;3.10;;;;;;;0.02;100.00;95853.50;4935585;29;20143;-72
2023/04/08 02:57:18;;;;;;;4.05;2.83;;;;;;;0.01;100.00;95851.81;4928734;29;20115;-72
2023/04/08 02:59:43;;;;;;;3.38;3.08;;;;;;;-0.05;100.00;95852.94;4929047;29;20028;-72
2023/04/08 03:02:09;;;;;;;3.97;3.60;;;;;;;-0.11;100.00;95854.09;4936564;29;20031;-73
2023/04/08 03:04:34;;;;;;;4.55;4.15;;;;;;;-0.07;100.00;95855.63;4937074;29;20054;-71
2023/04/08 03:07:00;;;;;;;3.45;3.10;;;;;;;-0.09;100.00;95862.63;4930854;29;20552;-71
2023/04/08 03:09:25;;;;;;;4.13;3.83;;;;;;;-0.05;100.00;95855.53;4902871;29;20095;-71
2023/04/08 03:11:53;;;;;;;3.00;2.80;;;;;;;-0.03;100.00;95856.28;4935262;29;20027;-71
2023/04/08 03:14:19;;;;;;;3.67;3.38;;;;;;;-0.06;100.00;95865.06;4937247;29;20031;-72
2023/04/08 03:16:45;;;;;;;3.60;3.30;;;;;;;-0.09;100.00;95854.00;4933921;29;20027;-72
2023/04/08 03:19:10;;;;;;;3.92;3.63;;;;;;;-0.09;100.00;95859.19;4936395;29;20019;-73
2023/04/08 03:21:35;;;;;;;3.40;3.20;;;;;;;-0.12;100.00;95854.97;4937506;29;20042;-72
2023/04/08 03:24:01;;;;;;;4.93;3.13;;;;;;;-0.14;100.00;95864.56;4927013;29;20050;-72
2023/04/08 03:26:26;;;;;;;3.38;3.08;;;;;;;-0.13;100.00;95868.81;4937183;29;20539;-71
2023/04/08 03:28:52;;;;;;;3.10;2.90;;;;;;;-0.16;100.00;95869.81;4934817;29;20055;-71
2023/04/08 03:31:20;;;;;;;3.38;3.17;;;;;;;-0.17;100.00;95864.72;4934841;29;20022;-71
2023/04/08 03:33:45;;;;;;;2.90;2.75;;;;;;;-0.19;100.00;95861.34;4933490;29;20505;-71
2023/04/08 03:36:11;;;;;;;3.45;3.15;;;;;;;-0.27;100.00;95872.06;4930956;29;20032;-70
2023/04/08 03:38:36;;;;;;;3.00;2.80;;;;;;;-0.28;100.00;95872.16;4930388;29;20502;-72
2023/04/08 03:41:02;;;;;;;5.60;5.18;;;;;;;-0.27;100.00;95872.06;4913219;29;20027;-72
2023/04/08 03:43:27;;;;;;;3.17;3.00;;;;;;;-0.25;100.00;95874.59;4927372;29;20407;-72
2023/04/08 03:45:52;;;;;;;3.38;3.10;;;;;;;-0.25;100.00;95878.00;4941013;29;20663;-72
2023/04/08 03:48:18;;;;;;;3.17;2.88;;;;;;;-0.25;100.00;95877.19;4931762;29;20028;-72
2023/04/08 03:50:43;;;;;;;3.20;3.00;;;;;;;-0.29;100.00;95873.88;4921189;29;20393;-72
2023/04/08 03:53:11;;;;;;;3.58;3.28;;;;;;;-0.32;100.00;95871.44;4937326;29;20520;-72
2023/04/08 03:55:36;;;;;;;3.20;3.00;;;;;;;-0.35;100.00;95863.81;4936381;29;20116;-72
2023/04/08 03:58:02;;;;;;;3.53;3.22;;;;;;;-0.39;100.00;95857.94;4926244;29;20454;-72
2023/04/08 04:00:27;;;;;;;3.40;3.20;;;;;;;-0.37;100.00;95860.47;4935298;29;20688;-72
2023/04/08 04:02:54;;;;;;;3.55;2.97;;;;;;;-0.37;100.00;95857.88;4934732;29;20030;-72
2023/04/08 04:05:19;;;;;;;3.30;3.00;;;;;;;-0.38;100.00;95851.84;4933537;29;20043;-72
2023/04/08 04:07:45;;;;;;;3.40;3.20;;;;;;;-0.40;100.00;95858.03;4927861;29;20121;-72
2023/04/08 04:10:10;;;;;;;4.53;3.72;;;;;;;-0.44;100.00;95863.34;4923396;29;20040;-72
2023/04/08 04:12:36;;;;;;;3.53;3.33;;;;;;;-0.41;100.00;95862.34;4939540;29;20424;-72
2023/04/08 04:15:01;;;;;;;3.38;3.08;;;;;;;-0.44;100.00;95867.66;4934696;29;20035;-71
2023/04/08 04:17:27;;;;;;;4.05;3.80;;;;;;;-0.45;100.00;95860.81;4937726;29;20031;-72
2023/04/08 04:19:52;;;;;;;4.05;3.55;;;;;;;-0.45;100.00;95866.81;4934833;29;20116;-72
2023/04/08 04:22:17;;;;;;;4.18;3.78;;;;;;;-0.46;100.00;95870.31;4934571;29;20110;-71
2023/04/08 04:24:47;;;;;;;4.22;3.92;;;;;;;-0.46;100.00;95878.06;4935771;29;20742;-71
2023/04/08 04:27:12;;;;;;;3.65;3.25;;;;;;;-0.45;100.00;95878.94;4934541;29;20034;-71
2023/04/08 04:29:38;;;;;;;3.67;3.47;;;;;;;-0.43;100.00;95879.69;4927398;29;20024;-71
2023/04/08 04:32:03;;;;;;;4.55;3.85;;;;;;;-0.45;100.00;95877.16;4901995;29;20042;-71
2023/04/08 04:34:29;;;;;;;5.32;4.35;;;;;;;-0.46;100.00;95887.59;4918603;29;20038;-71
2023/04/08 04:36:54;;;;;;;4.55;4.18;;;;;;;-0.51;100.00;95880.03;4922468;29;20032;-71
2023/04/08 04:39:19;;;;;;;4.70;4.30;;;;;;;-0.54;100.00;95884.53;4926277;29;20461;-72
2023/04/08 04:41:46;;;;;;;5.30;4.75;;;;;;;-0.53;100.00;95883.63;4932796;29;20511;-71
2023/04/08 04:44:12;;;;;;;6.45;4.90;;;;;;;-0.56;100.00;95884.59;4929035;29;20024;-72
2023/04/08 04:46:37;;;;;;;8.05;7.30;;;;;;;-0.55;100.00;95890.59;4920459;29;20028;-72
2023/04/08 04:49:02;;;;;;;6.85;6.25;;;;;;;-0.57;100.00;95888.09;4918690;29;20469;-71
2023/04/08 04:51:30;;;;;;;6.22;5.60;;;;;;;-0.56;100.00;95887.16;4936109;29;20027;-71
2023/04/08 04:53:55;;;;;;;5.30;4.80;;;;;;;-0.54;100.00;95881.94;4928941;29;20058;-71
2023/04/08 04:56:21;;;;;;;5.88;5.38;;;;;;;-0.54;100.00;95892.28;4931727;29;20028;-70
2023/04/08 04:58:46;;;;;;;6.45;5.85;;;;;;;-0.54;100.00;95897.47;4921458;29;20039;-71
2023/04/08 05:01:11;;;;;;;5.38;4.97;;;;;;;-0.57;100.00;95893.25;4929860;29;20039;-72
2023/04/08 05:03:37;;;;;;;5.22;4.90;;;;;;;-0.58;100.00;95892.41;4926278;29;20163;-72
2023/04/08 05:06:02;;;;;;;7.30;5.10;;;;;;;-0.60;100.00;95893.41;4925093;29;20024;-72
2023/04/08 05:08:28;;;;;;;5.00;4.60;;;;;;;-0.61;100.00;95899.47;4928405;29;20023;-71
2023/04/08 05:10:54;;;;;;;6.32;5.72;;;;;;;-0.60;100.00;95895.97;4929093;29;20495;-72
2023/04/08 05:13:20;;;;;;;6.18;5.57;;;;;;;-0.58;100.00;95905.34;4925614;29;20034;-72
2023/04/08 05:15:45;;;;;;;7.35;6.65;;;;;;;-0.58;100.00;95904.50;4936394;29;20110;-72
2023/04/08 05:18:11;;;;;;;7.43;6.72;;;;;;;-0.61;100.00;95902.06;4935963;29;20341;-72
2023/04/08 05:20:36;;;;;;;7.85;5.90;;;;;;;-0.66;100.00;95910.00;4935590;29;20031;-72
2023/04/08 05:23:02;;;;;;;5.72;5.30;;;;;;;-0.63;100.00;95903.88;4938981;29;20646;-72
2023/04/08 05:25:29;;;;;;;8.95;5.40;;;;;;;-0.61;100.00;95909.81;4933714;29;20050;-72
2023/04/08 05:27:55;;;;;;;6.35;5.13;;;;;;;-0.58;100.00;95912.28;4931307;29;20042;-71
2023/04/08 05:30:21;;;;;;;6.82;5.43;;;;;;;-0.55;100.00;95906.97;4934760;29;20031;-72
2023/04/08 05:32:46;;;;;;;11.90;9.40;;;;;;;-0.50;100.00;95914.53;4935142;29;20038;-72
2023/04/08 05:35:11;;;;;;;12.95;11.57;;;;;;;-0.49;100.00;95917.03;4935025;29;20043;-72
2023/04/08 05:37:37;;;;;;;15.90;14.25;;;;;;;-0.47;100.00;95915.19;4924677;29;20036;-71
2023/04/08 05:40:03;;;;;;;15.38;13.95;;;;;;;-0.49;100.00;95919.59;4918813;29;20059;-71
2023/04/08 05:42:28;;;;;;;14.95;13.43;;;;;;;-0.52;100.00;95922.34;4938191;29;20063;-71
2023/04/08 05:44:53;;;;;;;10.38;9.45;;;;;;;-0.50;100.00;95925.69;4934270;29;20027;-71
2023/04/08 05:47:19;;;;;;;12.25;9.88;;;;;;;-0.47;100.00;95925.53;4931939;29;20039;-72
2023/04/08 05:49:44;;;;;;;9.63;8.68;;;;;;;-0.44;100.00;95929.75;4935662;29;20444;-71
2023/04/08 05:52:10;;;;;;;9.63;8.82;;;;;;;-0.39;100.00;95922.63;4931589;29;20024;-71
2023/04/08 05:54:35;;;;;;;10.88;9.93;;;;;;;-0.36;100.00;95926.81;4930312;29;20028;-73
2023/04/08 05:57:01;;;;;;;9.50;8.63;;;;;;;-0.34;100.00;95920.66;4935514;29;20047;-73
2023/04/08 05:59:26;;;;;;;9.38;8.32;;;;;;;-0.32;100.00;95918.88;4933357;29;20043;-73
2023/04/08 06:01:54;;;;;;;8.40;7.68;;;;;;;-0.29;100.00;95933.41;4934866;29;20042;-72
2023/04/08 06:04:19;;;;;;;9.68;7.93;;;;;;;-0.27;100.00;95929.00;4934567;29;20026;-72
2023/04/08 06:06:45;;;;;;;7.97;7.30;;;;;;;-0.23;100.00;95927.94;4918691;29;20392;-73
2023/04/08 06:09:10;;;;;;;9.85;8.95;;;;;;;-0.16;100.00;95926.75;4934830;29;20028;-71
2023/04/08 06:11:36;;;;;;;9.63;8.07;;;;;;;-0.10;100.00;95933.41;4935153;29;20039;-71
2023/04/08 06:14:01;;;;;;;9.25;8.48;;;;;;;-0.06;100.00;95937.53;4922476;29;20039;-71
2023/04/08 06:16:27;;;;;;;9.95;9.05;;;;;;;-0.03;100.00;95936.53;4913571;29;20118;-71
2023/04/08 06:18:52;;;;;;;9.23;8.43;;;;;;;-0.08;100.00;95934.19;4919614;29;20023;-74
2023/04/08 06:21:17;;;;;;;8.93;8.20;;;;;;;-0.06;100.00;95939.28;4935343;29;20047;-71
2023/04/08 06:23:43;;;;;;;11.23;10.32;;;;;;;-0.04;100.00;95943.47;4940477;29;20051;-71
2023/04/08 06:26:08;;;;;;;15.10;13.68;;;;;;;0.01;100.00;95942.41;4935181;29;20103;-71
2023/04/08 06:28:34;;;;;;;15.70;14.20;;;;;;;0.08;100.00;95941.22;4935992;29;20043;-70
2023/04/08 06:30:59;;;;;;;11.13;10.13;;;;;;;0.13;100.00;95942.69;4940330;29;20797;-69
2023/04/08 06:33:25;;;;;;;11.65;10.55;;;;;;;0.19;100.00;95944.16;4937562;29;20094;-72
2023/04/08 06:35:50;;;;;;;15.13;12.88;;;;;;;0.20;100.00;95942.38;4936414;29;20031;-69
2023/04/08 06:38:16;;;;;;;16.73;14.90;;;;;;;0.21;100.00;95950.09;4934517;29;20069;-70
2023/04/08 06:40:41;;;;;;;17.38;15.77;;;;;;;0.22;100.00;95944.00;4933355;29;20023;-71
2023/04/08 06:43:07;;;;;;;15.50;14.00;;;;;;;0.25;100.00;95951.63;4933666;29;20019;-72
2023/04/08 06:45:33;;;;;;;15.60;14.30;;;;;;;0.27;100.00;95947.22;4934253;29;20110;-71
2023/04/08 06:47:58;;;;;;;14.45;13.25;;;;;;;0.81;100.00;95955.91;4930206;29;20055;-72
2023/04/08 06:50:24;;;;;;;18.25;16.65;;;;;;;1.93;100.00;95958.00;4935813;29;20110;-70
2023/04/08 06:52:49;;;;;;;14.20;12.80;;;;;;;3.11;100.00;95954.94;4932009;29;20611;-69
2023/04/08 06:55:15;;;;;;;7.93;7.30;;;;;;;4.31;100.00;95945.16;4935008;29;20031;-70
2023/04/08 06:57:40;;;;;;;6.82;6.22;;;;;;;5.37;95.31;95954.84;4937694;29;20047;-71
2023/04/08 07:00:06;;;;;;;6.35;4.65;;;;;;;6.17;89.79;95958.16;4933843;29;20032;-72
2023/04/08 07:02:32;;;;;;;5.38;4.63;;;;;;;6.91;81.41;95965.13;4938618;29;20063;-71
2023/04/08 07:04:57;;;;;;;8.90;4.85;;;;;;;7.37;81.72;95965.28;4931706;29;20036;-72
2023/04/08 07:07:23;;;;;;;8.43;3.97;;;;;;;8.06;77.24;95963.53;4934733;29;20031;-73
2023/04/08 07:09:49;;;;;;;5.43;5.03;;;;;;;8.02;71.39;95963.78;4935688;29;20036;-73
2023/04/08 07:12:15;;;;;;;5.13;4.65;;;;;;;8.60;70.57;95961.97;4936888;29;20031;-73
2023/04/08 07:14:40;;;;;;;5.90;5.40;;;;;;;9.09;69.82;95958.97;4938690;29;20035;-72
2023/04/08 07:17:05;;;;;;;7.53;5.72;;;;;;;9.26;64.86;95962.81;4919286;29;20135;-71
2023/04/08 07:19:31;;;;;;;4.75;4.20;;;;;;;9.30;65.27;95959.81;4935678;29;20055;-74
2023/04/08 07:21:56;;;;;;;3.90;3.50;;;;;;;9.70;64.49;95960.03;4943316;29;20194;-77
2023/04/08 07:24:22;;;;;;;5.85;5.40;;;;;;;9.60;64.05;95965.22;4914781;29;20101;-72
2023/04/08 07:26:48;;;;;;;5.80;5.30;;;;;;;9.70;60.58;95955.63;4926586;29;20070;-72
2023/04/08 07:29:14;;;;;;;4.45;4.03;;;;;;;9.91;62.55;95967.91;4939190;29;20040;-72
2023/04/08 07:31:42;;;;;;;3.58;3.30;;;;;;;9.97;57.62;95972.63;4940746;29;20062;-72
2023/04/08 07:34:07;;;;;;;9.02;8.02;;;;;;;10.52;59.89;95971.50;4935927;29;20024;-76
2023/04/08 07:36:33;;;;;;;10.18;6.90;;;;;;;10.79;57.13;95975.28;4941049;29;20031;-78
2023/04/08 07:38:58;;;;;;;4.60;4.20;;;;;;;11.22;56.87;95977.69;4938661;29;20485;-77
2023/04/08 07:41:24;;;;;;;2.63;2.53;;;;;;;11.09;56.25;95975.31;4941015;29;20443;-76
2023/04/08 07:43:49;;;;;;;3.78;2.80;;;;;;;11.38;55.62;95977.09;4942130;29;20023;-78
2023/04/08 07:46:15;;;;;;;2.30;2.20;;;;;;;11.84;54.22;95982.59;4933947;29;20456;-78
2023/04/08 07:48:40;;;;;;;2.25;2.13;;;;;;;11.90;53.25;95982.84;4938027;29;20031;-76
2023/04/08 07:51:07;;;;;;;4.13;3.42;;;;;;;11.85;52.51;95984.25;4938984;29;20132;-73
2023/04/08 07:53:33;;;;;;;2.47;2.38;;;;;;;11.74;53.89;95983.44;4936540;29;20035;-72
2023/04/08 07:55:59;;;;;;;9.18;7.45;;;;;;;12.39;50.63;95984.53;4935215;29;20389;-73
2023/04/08 07:58:25;;;;;;;9.50;7.43;;;;;;;12.29;49.49;95984.56;4926836;29;20056;-74
2023/04/08 08:00:50;;;;;;;6.25;5.65;;;;;;;12.54;49.36;95979.59;4936085;29;20027;-76
2023/04/08 08:03:16;;;;;;;2.67;2.47;;;;;;;12.24;49.19;95989.44;4941785;29;20460;-76
2023/04/08 08:05:42;;;;;;;2.67;2.47;;;;;;;12.17;49.80;95994.47;4935223;29;20457;-75
2023/04/08 08:08:10;;;;;;;7.38;6.68;;;;;;;12.48;48.77;95985.44;4927635;29;20138;-76
2023/04/08 08:10:36;;;;;;;3.13;2.92;;;;;;;12.49;50.40;95988.91;4936531;29;20038;-75
2023/04/08 08:13:01;;;;;;;3.58;2.80;;;;;;;12.92;49.31;95986.56;4933709;29;20037;-75
2023/04/08 08:15:27;;;;;;;3.08;2.42;;;;;;;12.63;48.52;95990.22;4928118;29;20203;-76
2023/04/08 08:17:52;;;;;;;2.83;2.63;;;;;;;12.58;48.29;95991.50;4938438;28;20035;-74
2023/04/08 08:20:17;;;;;;;2.80;2.60;;;;;;;12.94;48.25;95984.63;4934929;29;20084;-76
2023/04/08 08:22:44;;;;;;;3.42;2.60;;;;;;;13.08;48.69;95992.03;4915469;29;20039;-76
2023/04/08 08:25:09;;;;;;;3.03;2.72;;;;;;;12.90;48.53;95990.19;4935600;29;20123;-78
2023/04/08 08:27:35;;;;;;;3.45;3.15;;;;;;;13.35;48.34;95981.53;4939410;29;20063;-79
2023/04/08 08:30:02;;;;;;;7.32;3.20;;;;;;;13.84;46.82;95989.06;4916492;29;20055;-79
2023/04/08 08:32:28;;;;;;;3.75;3.45;;;;;;;14.49;45.47;95987.78;4935221;29;20066;-80
2023/04/08 08:34:53;;;;;;;3.90;3.10;;;;;;;14.13;45.37;95991.38;4942036;29;20060;-85
2023/04/08 08:37:18;;;;;;;2.97;2.78;;;;;;;14.41;43.68;95998.31;4938136;29;20039;-83
2023/04/08 08:39:44;;;;;;;2.40;2.30;;;;;;;14.07;46.02;95996.50;4934637;29;20031;-83
2023/04/08 08:42:23;;;;;;;3.30;3.05;;;;;;;14.83;43.87;96000.16;4935320;29;20032;-82
2023/04/08 08:44:49;;;;;;;2.60;2.40;;;;;;;14.97;43.04;96000.53;4932041;29;20123;-77
2023/04/08 08:47:15;;;;;;;2.58;2.38;;;;;;;14.94;42.42;96000.88;4941228;29;20150;-76
2023/04/08 08:49:41;;;;;;;3.08;2.88;;;;;;;15.10;43.64;95998.22;4943581;28;20031;-73
2023/04/08 08:52:07;;;;;;;3.83;2.67;;;;;;;14.96;42.51;95993.59;4940945;29;20023;-79
2023/04/08 08:54:32;;;;;;;2.70;2.50;;;;;;;14.84;42.84;95993.06;4937304;29;20130;-77
2023/04/08 08:56:58;;;;;;;2.60;2.40;;;;;;;15.02;42.88;95991.09;4940466;29;20078;-76
2023/04/08 08:59:23;;;;;;;2.72;2.53;;;;;;;15.42;42.34;95999.28;4940966;29;20500;-73
2023/04/08 09:01:49;;;;;;;2.28;2.15;;;;;;;15.72;40.47;95996.97;4919636;29;20027;-78
2023/04/08 09:04:18;;;;;;;2.17;2.05;;;;;;;15.80;41.53;95997.94;4939025;29;20073;-77
2023/04/08 09:06:46;;;;;;;2.25;2.05;;;;;;;15.51;40.13;96000.13;4941539;29;20016;-76
2023/04/08 09:09:12;;;;;;;3.35;2.60;;;;;;;15.67;41.07;95996.63;4929005;29;20063;-78
2023/04/08 09:11:43;;;;;;;4.25;2.80;;;;;;;16.02;40.09;96002.59;4935940;29;20023;-79
2023/04/08 09:14:22;;;;;;;2.85;2.65;;;;;;;15.58;41.39;96000.28;4919912;29;20054;-83
2023/04/08 09:16:49;;;;;;;2.58;2.38;;;;;;;15.98;41.43;96000.47;4942444;29;20011;-74
2023/04/08 09:19:14;;;;;;;3.13;2.50;;;;;;;16.31;40.69;96001.22;4937585;29;20032;-75
2023/04/08 09:21:40;;;;;;;2.75;2.42;;;;;;;15.86;41.29;96007.91;4937267;29;20499;-73
2023/04/08 09:24:06;;;;;;;2.70;2.50;;;;;;;15.88;40.61;96000.59;4937094;29;20039;-75
2023/04/08 09:26:32;;;;;;;3.22;2.45;;;;;;;15.71;41.10;96005.91;4940677;29;20054;-73
2023/04/08 09:29:08;;;;;;;5.07;2.70;;;;;;;16.31;39.89;96001.22;4917981;29;20493;-72
2023/04/08 09:31:37;;;;;;;2.30;2.10;;;;;;;15.56;39.74;96007.56;4941827;29;20042;-76
2023/04/08 09:34:23;;;;;;;3.75;2.38;;;;;;;15.96;40.19;96003.28;4941612;29;20066;-77
2023/04/08 09:36:49;;;;;;;3.30;2.33;;;;;;;15.76;41.09;96000.13;4937124;29;20047;-73
2023/04/08 09:39:14;;;;;;;2.42;2.22;;;;;;;15.69;40.37;95994.63;4940006;29;20032;-75
2023/04/08 09:41:41;;;;;;;2.53;2.40;;;;;;;16.16;40.73;95993.13;4939817;29;20031;-73
2023/04/08 09:44:09;;;;;;;3.20;2.47;;;;;;;16.38;40.04;95992.56;4940966;29;20042;-76
2023/04/08 09:46:50;;;;;;;2.58;2.42;;;;;;;16.09;39.90;95991.31;4917802;29;20023;-75
2023/04/08 09:49:32;;;;;;;2.55;2.38;;;;;;;15.48;40.80;95987.19;4938524;29;20115;-76
2023/04/08 09:52:05;;;;;;;2.38;2.20;;;;;;;16.44;40.11;95983.88;4936380;29;20492;-76
2023/04/08 09:54:50;;;;;;;2.95;2.72;;;;;;;16.93;39.32;95985.50;4935715;29;20020;-74
2023/04/08 09:57:20;;;;;;;3.63;2.30;;;;;;;16.96;37.78;95987.00;4934288;29;20083;-74
2023/04/08 10:00:03;;;;;;;2.70;2.50;;;;;;;17.11;39.15;95979.94;4935561;29;20031;-74
2023/04/08 10:02:32;;;;;;;2.90;2.70;;;;;;;16.83;38.84;95983.06;4919508;29;20118;-75
2023/04/08 10:05:00;;;;;;;3.20;2.30;;;;;;;16.85;39.18;95985.56;4936705;29;20167;-75
2023/04/08 10:07:25;;;;;;;2.75;2.50;;;;;;;17.34;37.93;95984.44;4939796;29;20036;-74
2023/04/08 10:09:51;;;;;;;2.72;2.47;;;;;;;17.47;37.48;95981.22;4943537;29;20035;-75
2023/04/08 10:12:17;;;;;;;2.40;2.30;;;;;;;17.07;38.05;95989.28;4934254;29;20039;-74
2023/04/08 10:15:25;;;;;;;2.90;2.40;;;;;;;16.63;38.35;95987.16;4930674;29;20032;-74
2023/04/08 10:17:55;;;;;;;2.70;2.50;;;;;;;16.57;39.10;95991.31;4937401;29;20032;-78
2023/04/08 10:20:35;;;;;;;3.03;2.15;;;;;;;16.29;41.61;95978.47;4937681;29;20039;-82
2023/04/08 10:23:06;;;;;;;2.45;2.25;;;;;;;16.74;38.65;95984.94;4931251;29;20343;-81
2023/04/08 10:25:36;;;;;;;2.85;2.60;;;;;;;16.67;37.17;95989.28;4937788;29;20051;-81
2023/04/08 10:28:22;;;;;;;3.08;2.22;;;;;;;16.67;40.92;95983.13;4936116;29;20035;-81
2023/04/08 10:30:51;;;;;;;2.63;2.40;;;;;;;16.82;37.71;95980.59;4931761;29;20020;-80
2023/04/08 10:33:31;;;;;;;4.53;2.80;;;;;;;16.86;39.39;95987.22;4934446;29;20110;-80
2023/04/08 10:36:11;;;;;;;2.50;2.33;;;;;;;17.65;38.55;95982.72;4935187;29;20413;-80
2023/04/08 10:38:37;;;;;;;2.88;2.42;;;;;;;17.07;39.58;95981.31;4935197;29;20051;-81
2023/04/08 10:41:03;;;;;;;2.80;2.60;;;;;;;16.93;40.08;95977.53;4924187;29;20027;-80
2023/04/08 10:43:33;;;;;;;2.80;2.60;;;;;;;17.68;38.90;95975.22;4935582;29;20074;-80
2023/04/08 10:45:59;;;;;;;2.80;2.60;;;;;;;18.15;37.96;95972.47;4936571;29;20111;-80
2023/04/08 10:48:25;;;;;;;2.05;1.95;;;;;;;17.92;37.27;95970.66;4921398;29;20063;-80
2023/04/08 10:51:08;;;;;;;2.40;2.30;;;;;;;17.60;37.78;95977.94;4925550;29;20106;-74
2023/04/08 10:53:36;;;;;;;2.85;2.50;;;;;;;17.19;38.12;95976.41;4939037;29;20024;-74
2023/04/08 10:56:09;;;;;;;2.30;2.20;;;;;;;18.28;36.09;95974.50;4932133;29;20035;-76
2023/04/08 10:58:35;;;;;;;2.45;2.35;;;;;;;17.51;38.40;95973.69;4929614;29;20055;-84
2023/04/08 11:01:07;;;;;;;3.60;2.33;;;;;;;17.25;37.57;95972.22;4930955;29;20032;-75
2023/04/08 11:03:34;;;;;;;2.97;2.25;;;;;;;17.21;38.77;95968.25;4938411;29;20027;-82
2023/04/08 11:06:01;;;;;;;3.20;2.53;;;;;;;17.76;38.72;95959.16;4940007;29;20063;-76
2023/04/08 11:08:31;;;;;;;2.38;2.28;;;;;;;18.49;37.54;95962.25;4937218;29;20393;-75
2023/04/08 11:10:57;;;;;;;2.85;2.42;;;;;;;18.11;37.92;95966.66;4932215;29;20027;-76
2023/04/08 11:13:22;;;;;;;2.65;1.90;;;;;;;18.52;36.65;95965.41;4921973;29;20058;-74
2023/04/08 11:15:49;;;;;;;2.58;2.30;;;;;;;18.38;36.49;95967.06;4916188;29;20031;-78
2023/04/08 11:18:15;;;;;;;2.40;2.20;;;;;;;18.32;35.57;95968.63;4938436;29;20047;-77
2023/04/08 11:20:43;;;;;;;4.00;2.03;;;;;;;18.88;36.66;95969.09;4920365;29;20540;-77
2023/04/08 11:23:13;;;;;;;2.35;2.10;;;;;;;19.66;34.63;95960.47;4934600;29;20114;-78
2023/04/08 11:25:43;;;;;;;2.38;2.13;;;;;;;19.73;32.60;95966.69;4933480;29;20095;-77
2023/04/08 11:28:08;;;;;;;2.78;2.10;;;;;;;20.12;32.16;95958.38;4937189;29;20032;-77
2023/04/08 11:30:34;;;;;;;2.00;1.90;;;;;;;19.83;31.77;95965.53;4933350;29;20087;-76